Time;durP1;ratioP1;P1;durP2;ratioP2;P2;SDS_P1;SDS_P2;PMS_P1;PMS_P2;Temp;Humidity;BMP_temperature;BMP_pressure;BME280_temperature;BME280_humidity;BME280_pressure;Samples;Min_cycle;Max_cycle;Signal;HPM_P1;HPM_P2
2023/10/22 00:00:16;;;;;;;19.42;10.43;;;;;;;10.47;100.00;100195.86;1783001;80;21062;-65
2023/10/22 00:02:44;;;;;;;21.27;11.57;;;;;;;10.47;100.00;100194.50;1782959;80;21046;-66
2023/10/22 00:05:14;;;;;;;20.30;11.12;;;;;;;10.46;100.00;100185.95;1782952;80;20960;-65
2023/10/22 00:07:45;;;;;;;21.15;11.28;;;;;;;10.47;100.00;100179.43;1782940;80;21038;-65
2023/10/22 00:10:15;;;;;;;19.35;11.22;;;;;;;10.48;100.00;100175.64;1782804;80;21043;-66
2023/10/22 00:12:43;;;;;;;21.15;11.18;;;;;;;10.50;100.00;100170.48;1782859;80;21058;-66
2023/10/22 00:15:12;;;;;;;19.35;10.72;;;;;;;10.51;100.00;100164.80;1782937;80;21007;-66
2023/10/22 00:17:41;;;;;;;21.00;11.00;;;;;;;10.51;100.00;100170.28;1782943;80;20999;-66
2023/10/22 00:20:11;;;;;;;21.10;11.28;;;;;;;10.51;100.00;100169.44;1782721;80;21042;-67
2023/10/22 00:22:39;;;;;;;19.25;10.48;;;;;;;10.48;100.00;100167.95;1782994;80;21038;-66
2023/10/22 00:25:09;;;;;;;22.15;11.40;;;;;;;10.47;100.00;100153.93;1783015;80;21015;-66
2023/10/22 00:27:39;;;;;;;22.58;11.90;;;;;;;10.48;100.00;100161.10;1782600;80;21531;-66
2023/10/22 00:30:08;;;;;;;21.42;11.30;;;;;;;10.50;100.00;100159.53;1782714;80;21023;-65
2023/10/22 00:32:37;;;;;;;24.43;12.65;;;;;;;10.48;100.00;100155.63;1783133;80;21465;-64
2023/10/22 00:35:07;;;;;;;21.65;11.63;;;;;;;10.48;100.00;100149.63;1761592;80;20982;-66
2023/10/22 00:37:36;;;;;;;24.57;13.40;;;;;;;10.51;100.00;100147.52;1782725;80;21031;-66
2023/10/22 00:40:06;;;;;;;26.20;12.98;;;;;;;10.50;100.00;100146.67;1782723;80;21029;-66
2023/10/22 00:42:35;;;;;;;25.12;12.85;;;;;;;10.49;100.00;100149.09;1782977;80;21015;-66
2023/10/22 00:45:05;;;;;;;24.70;12.45;;;;;;;10.50;100.00;100149.41;1782991;80;21047;-66
2023/10/22 00:47:35;;;;;;;21.97;11.53;;;;;;;10.52;100.00;100147.84;1782966;80;21003;-66
2023/10/22 00:50:03;;;;;;;24.25;12.23;;;;;;;10.53;100.00;100152.27;1783086;80;21053;-65
2023/10/22 00:52:32;;;;;;;21.25;11.90;;;;;;;10.50;100.00;100147.20;1782748;80;21007;-66
2023/10/22 00:55:02;;;;;;;23.60;12.28;;;;;;;10.50;100.00;100158.16;1782859;80;21026;-66
2023/10/22 00:57:32;;;;;;;22.52;11.35;;;;;;;10.50;100.00;100159.53;1782762;80;21018;-65
2023/10/22 01:00:01;;;;;;;22.50;11.78;;;;;;;10.51;100.00;100162.06;1782736;80;21023;-66
2023/10/22 01:02:30;;;;;;;19.37;11.40;;;;;;;10.53;100.00;100159.97;1782754;80;20991;-65
2023/10/22 01:04:59;;;;;;;18.73;10.58;;;;;;;10.54;100.00;100155.33;1782759;80;21070;-66
2023/10/22 01:07:30;;;;;;;19.07;10.32;;;;;;;10.55;100.00;100157.87;1782700;80;21039;-67
2023/10/22 01:09:58;;;;;;;20.08;11.03;;;;;;;10.56;100.00;100153.23;1782983;80;21059;-67
2023/10/22 01:12:35;;;;;;;16.82;10.25;;;;;;;10.52;100.00;100149.22;1782823;80;21026;-64
2023/10/22 01:15:06;;;;;;;15.67;8.53;;;;;;;10.51;100.00;100145.63;1783041;80;21062;-65
2023/10/22 01:17:34;;;;;;;18.85;10.50;;;;;;;10.52;100.00;100168.39;1782853;80;21014;-66
2023/10/22 01:20:06;;;;;;;17.37;10.13;;;;;;;10.52;100.00;100187.56;1782725;80;21631;-66
2023/10/22 01:22:34;;;;;;;19.00;10.05;;;;;;;10.52;100.00;100184.83;1782827;80;21015;-66
2023/10/22 01:25:04;;;;;;;15.03;9.60;;;;;;;10.54;100.00;100179.98;1782934;80;21054;-67
2023/10/22 01:27:35;;;;;;;17.75;9.53;;;;;;;10.54;100.00;100184.09;1780974;80;21531;-67
2023/10/22 01:30:04;;;;;;;15.28;9.43;;;;;;;10.55;100.00;100174.30;1761452;81;21105;-65
2023/10/22 01:32:33;;;;;;;15.68;9.63;;;;;;;10.58;100.00;100175.80;1761697;80;21034;-66
2023/10/22 01:35:03;;;;;;;18.05;10.18;;;;;;;10.58;100.00;100171.69;1761520;81;21035;-65
2023/10/22 01:37:36;;;;;;;15.65;9.68;;;;;;;10.57;100.00;100169.99;1761584;81;21046;-65
2023/10/22 01:40:07;;;;;;;16.57;9.30;;;;;;;10.59;100.00;100181.59;1761704;81;21022;-66
2023/10/22 01:42:36;;;;;;;16.77;9.43;;;;;;;10.57;100.00;100183.17;1761441;81;21066;-66
2023/10/22 01:45:06;;;;;;;16.97;9.38;;;;;;;10.55;100.00;100176.20;1761609;81;21022;-65
2023/10/22 01:47:36;;;;;;;16.82;9.73;;;;;;;10.56;100.00;100175.16;1761805;81;20987;-65
2023/10/22 01:50:06;;;;;;;16.45;9.58;;;;;;;10.57;100.00;100172.73;1761536;81;20987;-65
2023/10/22 01:52:35;;;;;;;17.73;10.38;;;;;;;10.57;100.00;100169.99;1761481;81;21054;-65
2023/10/22 01:55:05;;;;;;;18.27;10.05;;;;;;;10.56;100.00;100169.67;1761660;80;21033;-66
2023/10/22 01:57:33;;;;;;;16.30;9.45;;;;;;;10.56;100.00;100177.89;1761662;81;21030;-65
2023/10/22 02:00:03;;;;;;;16.50;10.03;;;;;;;10.58;100.00;100173.05;1761552;81;21035;-65
2023/10/22 02:02:35;;;;;;;18.37;10.55;;;;;;;10.59;100.00;100184.33;1760365;80;21493;-64
2023/10/22 02:05:05;;;;;;;19.50;10.82;;;;;;;10.60;100.00;100182.76;1761659;81;21003;-67
2023/10/22 02:07:39;;;;;;;16.42;9.98;;;;;;;10.62;100.00;100188.03;1761616;81;21412;-65
2023/10/22 02:10:09;;;;;;;19.05;10.53;;;;;;;10.60;100.00;100184.66;1761713;81;21037;-66
2023/10/22 02:12:39;;;;;;;18.37;11.03;;;;;;;10.62;100.00;100184.77;1761664;81;21027;-66
2023/10/22 02:15:08;;;;;;;16.82;10.15;;;;;;;10.62;100.00;100182.03;1761438;81;21070;-66
2023/10/22 02:17:37;;;;;;;18.25;10.90;;;;;;;10.64;100.00;100178.56;1761326;81;21508;-65
2023/10/22 02:20:08;;;;;;;20.15;11.05;;;;;;;10.65;100.00;100179.41;1761256;81;21046;-66
2023/10/22 02:22:38;;;;;;;19.23;10.72;;;;;;;10.66;100.00;100184.69;1761483;81;20975;-66
2023/10/22 02:25:07;;;;;;;20.12;10.90;;;;;;;10.67;100.00;100181.42;1761291;81;21031;-65
2023/10/22 02:27:38;;;;;;;17.80;10.03;;;;;;;10.67;100.00;100178.68;1761329;81;21110;-66
2023/10/22 02:30:09;;;;;;;22.13;11.15;;;;;;;10.66;100.00;100179.20;1745119;82;21071;-66
2023/10/22 02:32:38;;;;;;;20.85;11.90;;;;;;;10.69;100.00;100183.44;1745012;82;21533;-66
2023/10/22 02:35:10;;;;;;;21.48;11.75;;;;;;;10.71;100.00;100171.22;1724074;82;21066;-67
2023/10/22 02:37:39;;;;;;;21.82;11.20;;;;;;;10.72;100.00;100168.80;1745101;82;21094;-66
2023/10/22 02:40:09;;;;;;;18.98;10.20;;;;;;;10.74;100.00;100172.70;1745004;82;21027;-64
2023/10/22 02:42:39;;;;;;;21.27;11.25;;;;;;;10.75;100.00;100171.66;1745355;82;21016;-66
2023/10/22 02:45:10;;;;;;;21.17;12.10;;;;;;;10.75;100.00;100167.02;1745246;82;21118;-66
2023/10/22 02:47:40;;;;;;;18.17;10.80;;;;;;;10.77;100.00;100169.55;1745342;82;21003;-64
2023/10/22 02:50:11;;;;;;;21.02;10.95;;;;;;;10.76;100.00;100176.93;1745506;82;20991;-66
2023/10/22 02:52:39;;;;;;;22.00;11.12;;;;;;;10.77;100.00;100173.14;1745203;82;21007;-66
2023/10/22 02:55:08;;;;;;;17.85;10.38;;;;;;;10.76;100.00;100176.93;1745188;82;21034;-65
2023/10/22 02:57:37;;;;;;;21.45;11.22;;;;;;;10.78;100.00;100183.58;1744964;82;21019;-66
2023/10/22 03:00:10;;;;;;;21.00;11.45;;;;;;;10.79;100.00;100172.41;1745220;82;21494;-66
2023/10/22 03:02:40;;;;;;;21.33;11.28;;;;;;;10.80;100.00;100170.52;1745639;82;21020;-66
2023/10/22 03:05:09;;;;;;;20.00;11.35;;;;;;;10.79;100.00;100158.70;1745263;82;21075;-66
2023/10/22 03:07:38;;;;;;;19.55;11.08;;;;;;;10.79;100.00;100155.13;1745305;82;21019;-66
2023/10/22 03:10:09;;;;;;;20.40;11.75;;;;;;;10.77;100.00;100146.27;1745456;82;20999;-64
2023/10/22 03:12:38;;;;;;;21.75;11.28;;;;;;;10.77;100.00;100149.84;1745120;82;21035;-66
2023/10/22 03:15:09;;;;;;;21.10;11.03;;;;;;;10.80;100.00;100146.70;1745375;82;20975;-65
2023/10/22 03:17:39;;;;;;;19.02;10.90;;;;;;;10.79;100.00;100142.80;1745450;82;21039;-67
2023/10/22 03:20:10;;;;;;;19.87;11.53;;;;;;;10.79;100.00;100139.53;1745269;82;21059;-66
2023/10/22 03:22:39;;;;;;;20.23;11.40;;;;;;;10.78;100.00;100136.98;1745255;82;21027;-64
2023/10/22 03:25:08;;;;;;;22.20;12.30;;;;;;;10.79;100.00;100133.20;1745322;82;21031;-66
2023/10/22 03:27:37;;;;;;;18.90;11.03;;;;;;;10.79;100.00;100136.78;1745540;82;21066;-65
2023/10/22 03:30:10;;;;;;;18.65;11.18;;;;;;;10.82;100.00;100136.05;1776496;80;21058;-66
2023/10/22 03:32:39;;;;;;;19.07;11.22;;;;;;;10.83;100.00;100138.59;1782988;80;21054;-65
2023/10/22 03:35:09;;;;;;;23.50;12.30;;;;;;;10.83;100.00;100130.37;1782813;80;21022;-67
2023/10/22 03:37:37;;;;;;;19.60;11.43;;;;;;;10.83;100.00;100124.88;1783019;80;20995;-66
2023/10/22 03:40:12;;;;;;;18.65;11.88;;;;;;;10.82;100.00;100130.05;1783012;80;21050;-66
2023/10/22 03:42:40;;;;;;;18.45;10.53;;;;;;;10.82;100.00;100138.27;1783027;80;21042;-63
2023/10/22 03:45:10;;;;;;;17.42;11.48;;;;;;;10.83;100.00;100130.37;1782989;80;21023;-65
2023/10/22 03:47:40;;;;;;;20.37;11.63;;;;;;;10.82;100.00;100131.41;1782822;80;21035;-66
2023/10/22 03:50:09;;;;;;;23.15;11.85;;;;;;;10.82;100.00;100126.46;1782806;80;21011;-66
2023/10/22 03:52:38;;;;;;;21.20;12.53;;;;;;;10.84;100.00;100129.84;1783008;80;21015;-66
2023/10/22 03:55:08;;;;;;;21.73;12.90;;;;;;;10.84;100.00;100138.06;1782105;80;21058;-65
2023/10/22 03:57:37;;;;;;;20.10;12.05;;;;;;;10.86;100.00;100142.29;1782816;80;21058;-66
2023/10/22 04:00:08;;;;;;;19.70;11.78;;;;;;;10.86;100.00;100140.07;1782755;80;21042;-66
2023/10/22 04:02:40;;;;;;;19.23;12.15;;;;;;;10.87;100.00;100145.87;1783149;80;21014;-65
2023/10/22 04:05:09;;;;;;;19.80;12.03;;;;;;;10.86;100.00;100139.55;1783000;80;21018;-65
2023/10/22 04:07:39;;;;;;;23.85;12.55;;;;;;;10.87;100.00;100137.12;1761704;80;21031;-66
2023/10/22 04:10:11;;;;;;;20.48;11.57;;;;;;;10.88;100.00;100141.55;1783143;80;21034;-66
2023/10/22 04:12:40;;;;;;;22.40;11.80;;;;;;;10.88;100.00;100142.08;1782859;80;21070;-66
2023/10/22 04:15:09;;;;;;;22.02;12.20;;;;;;;10.87;100.00;100143.98;1783017;80;21500;-66
2023/10/22 04:17:37;;;;;;;21.27;11.53;;;;;;;10.88;100.00;100134.70;1782793;80;21015;-65
2023/10/22 04:20:08;;;;;;;22.02;12.13;;;;;;;10.88;100.00;100141.55;1782957;80;21034;-66
2023/10/22 04:22:36;;;;;;;21.42;11.88;;;;;;;10.86;100.00;100135.44;1782946;80;21090;-65
2023/10/22 04:25:07;;;;;;;22.32;12.68;;;;;;;10.88;100.00;100131.96;1782774;80;21002;-67
2023/10/22 04:27:36;;;;;;;21.20;11.95;;;;;;;10.87;100.00;100134.38;1782757;80;21046;-66
2023/10/22 04:30:07;;;;;;;20.37;12.18;;;;;;;10.89;100.00;100125.43;1775806;80;21054;-66
2023/10/22 04:32:37;;;;;;;21.52;12.88;;;;;;;10.89;100.00;100124.06;1761702;81;21046;-67
2023/10/22 04:35:06;;;;;;;22.20;12.47;;;;;;;10.91;100.00;100130.17;1761728;81;21039;-66
2023/10/22 04:37:35;;;;;;;21.90;12.68;;;;;;;10.90;100.00;100131.23;1761472;81;21043;-66
2023/10/22 04:40:06;;;;;;;23.52;12.85;;;;;;;10.89;100.00;100127.33;1761453;81;21082;-66
2023/10/22 04:42:34;;;;;;;24.47;13.05;;;;;;;10.90;100.00;100123.00;1761694;81;21062;-65
2023/10/22 04:45:04;;;;;;;22.00;11.97;;;;;;;10.90;100.00;100120.27;1761729;81;21051;-65
2023/10/22 04:47:35;;;;;;;23.25;12.70;;;;;;;10.90;100.00;100123.53;1741006;81;21023;-66
2023/10/22 04:50:05;;;;;;;23.70;12.03;;;;;;;10.90;100.00;100121.63;1761349;81;21094;-66
2023/10/22 04:52:37;;;;;;;22.87;12.47;;;;;;;10.91;100.00;100127.44;1761555;81;20994;-65
2023/10/22 04:55:08;;;;;;;20.68;11.55;;;;;;;10.92;100.00;100124.17;1761458;81;21532;-65
2023/10/22 04:57:37;;;;;;;21.82;11.53;;;;;;;10.92;100.00;100126.39;1761782;81;21031;-66
2023/10/22 05:00:10;;;;;;;23.73;12.60;;;;;;;10.91;100.00;100126.06;1761677;81;21058;-66
2023/10/22 05:02:39;;;;;;;21.17;11.35;;;;;;;10.91;100.00;100120.59;1761592;81;21027;-66
2023/10/22 05:05:08;;;;;;;22.32;12.58;;;;;;;10.91;100.00;100121.11;1761523;81;20990;-66
2023/10/22 05:07:37;;;;;;;20.37;11.78;;;;;;;10.91;100.00;100126.06;1762013;81;20982;-65
2023/10/22 05:10:07;;;;;;;23.92;12.40;;;;;;;10.92;100.00;100129.13;1761729;81;21019;-66
2023/10/22 05:12:35;;;;;;;23.42;12.90;;;;;;;10.94;100.00;100131.66;1761718;81;21019;-66
2023/10/22 05:15:05;;;;;;;21.50;12.30;;;;;;;10.94;100.00;100129.77;1761587;80;21029;-66
2023/10/22 05:17:34;;;;;;;24.40;12.43;;;;;;;10.95;100.00;100130.61;1761494;81;21056;-66
2023/10/22 05:20:04;;;;;;;21.12;12.23;;;;;;;10.95;100.00;100134.72;1761691;81;21031;-66
2023/10/22 05:22:33;;;;;;;23.85;13.10;;;;;;;10.96;100.00;100131.77;1761469;81;21018;-66
2023/10/22 05:25:02;;;;;;;23.42;12.98;;;;;;;10.96;100.00;100137.78;1761708;81;21002;-67
2023/10/22 05:27:30;;;;;;;21.27;12.13;;;;;;;10.95;100.00;100142.42;1761640;81;21427;-67
2023/10/22 05:29:59;;;;;;;22.75;12.35;;;;;;;10.95;100.00;100140.20;1764323;80;21647;-66
2023/10/22 05:32:28;;;;;;;20.77;11.78;;;;;;;10.95;100.00;100136.94;1782908;80;21066;-64
2023/10/22 05:34:59;;;;;;;22.27;12.45;;;;;;;10.96;100.00;100140.52;1761656;80;21034;-66
2023/10/22 05:37:27;;;;;;;21.70;11.95;;;;;;;10.98;100.00;100151.60;1782675;80;21030;-66
2023/10/22 05:39:57;;;;;;;25.65;13.25;;;;;;;11.00;100.00;100152.23;1782714;80;21063;-66
2023/10/22 05:42:26;;;;;;;20.92;12.03;;;;;;;11.01;100.00;100159.41;1782921;80;21023;-68
2023/10/22 05:44:54;;;;;;;20.27;11.55;;;;;;;11.02;100.00;100163.00;1782730;80;21599;-66
2023/10/22 05:47:23;;;;;;;22.90;11.95;;;;;;;11.05;100.00;100165.33;1759992;80;21015;-66
2023/10/22 05:49:51;;;;;;;22.67;12.37;;;;;;;11.08;100.00;100163.05;1782687;80;21521;-66
2023/10/22 05:52:20;;;;;;;23.60;12.13;;;;;;;11.11;100.00;100164.00;1782728;80;21046;-66
2023/10/22 05:54:53;;;;;;;23.90;12.30;;;;;;;11.12;100.00;100166.22;1782934;80;21055;-66
2023/10/22 05:57:23;;;;;;;22.22;12.10;;;;;;;11.11;100.00;100175.50;1762092;80;21023;-67
2023/10/22 05:59:51;;;;;;;22.87;12.55;;;;;;;11.10;100.00;100181.51;1782780;80;21494;-66
2023/10/22 06:02:20;;;;;;;25.32;12.98;;;;;;;11.09;100.00;100178.45;1782961;80;21062;-67
2023/10/22 06:04:48;;;;;;;26.95;13.00;;;;;;;11.09;100.00;100178.45;1782680;80;21039;-66
2023/10/22 06:07:17;;;;;;;26.17;12.98;;;;;;;11.11;100.00;100191.42;1782746;80;21030;-67
2023/10/22 06:09:47;;;;;;;23.55;12.55;;;;;;;11.11;100.00;100194.69;1782899;80;21038;-68
2023/10/22 06:12:17;;;;;;;23.30;12.78;;;;;;;11.11;100.00;100196.06;1782762;80;21442;-66
2023/10/22 06:14:46;;;;;;;26.37;12.30;;;;;;;11.11;100.00;100196.06;1782829;80;21042;-66
2023/10/22 06:17:15;;;;;;;26.10;13.80;;;;;;;11.10;100.00;100199.86;1782613;80;21042;-65
2023/10/22 06:19:44;;;;;;;26.07;13.38;;;;;;;11.11;100.00;100203.77;1782738;80;21050;-67
2023/10/22 06:22:12;;;;;;;26.87;13.03;;;;;;;11.13;100.00;100195.33;1783154;80;21027;-66
2023/10/22 06:24:42;;;;;;;22.67;12.45;;;;;;;11.12;100.00;100200.50;1782848;80;21474;-66
2023/10/22 06:27:11;;;;;;;26.95;13.32;;;;;;;11.14;100.00;100198.39;1760182;80;21033;-65
2023/10/22 06:29:40;;;;;;;26.95;13.98;;;;;;;11.14;100.00;100197.55;1761029;80;21046;-68
2023/10/22 06:32:09;;;;;;;29.25;13.85;;;;;;;11.14;100.00;100192.91;1782751;80;21082;-67
2023/10/22 06:34:39;;;;;;;29.67;13.88;;;;;;;11.15;100.00;100186.37;1760515;80;21023;-66
2023/10/22 06:37:09;;;;;;;25.32;13.83;;;;;;;11.18;100.00;100183.74;1783105;80;21014;-68
2023/10/22 06:39:37;;;;;;;28.23;14.28;;;;;;;11.20;100.00;100181.11;1782900;80;21042;-66
2023/10/22 06:42:06;;;;;;;29.18;14.73;;;;;;;11.22;100.00;100179.53;1782863;80;20987;-67
2023/10/22 06:44:36;;;;;;;32.10;14.30;;;;;;;11.22;100.00;100174.05;1782762;80;21034;-67
2023/10/22 06:47:05;;;;;;;35.90;15.28;;;;;;;11.23;100.00;100172.47;1783052;80;21038;-66
2023/10/22 06:49:34;;;;;;;30.08;14.75;;;;;;;11.25;100.00;100171.73;1782909;80;21031;-66
2023/10/22 06:52:03;;;;;;;33.33;15.58;;;;;;;11.26;100.00;100172.05;1782967;80;21023;-67
2023/10/22 06:54:32;;;;;;;32.90;15.32;;;;;;;11.28;100.00;100167.73;1782744;80;21043;-66
2023/10/22 06:57:01;;;;;;;35.48;16.05;;;;;;;11.28;100.00;100165.84;1782988;80;21100;-66
2023/10/22 06:59:32;;;;;;;37.25;16.55;;;;;;;11.30;100.00;100162.36;1782874;80;21043;-66
2023/10/22 07:02:01;;;;;;;36.42;16.42;;;;;;;11.31;100.00;100164.05;1782569;80;21451;-66
2023/10/22 07:04:30;;;;;;;35.83;16.37;;;;;;;11.32;100.00;100162.15;1761445;80;21011;-66
2023/10/22 07:06:58;;;;;;;35.75;17.15;;;;;;;11.32;100.00;100159.41;1782809;80;21055;-67
2023/10/22 07:09:27;;;;;;;38.23;17.80;;;;;;;11.34;100.00;100153.19;1761103;80;21901;-66
2023/10/22 07:11:55;;;;;;;35.68;17.17;;;;;;;11.35;100.00;100152.13;1782986;80;21435;-66
2023/10/22 07:14:27;;;;;;;41.00;17.55;;;;;;;11.37;100.00;100152.24;1782803;80;21010;-67
2023/10/22 07:16:56;;;;;;;37.83;17.65;;;;;;;11.37;100.00;100143.17;1761636;80;21050;-66
2023/10/22 07:19:25;;;;;;;44.40;18.82;;;;;;;11.41;100.00;100141.70;1782694;80;21054;-67
2023/10/22 07:21:53;;;;;;;40.90;17.70;;;;;;;11.46;100.00;100144.65;1782939;80;20987;-67
2023/10/22 07:24:22;;;;;;;42.03;17.92;;;;;;;11.46;100.00;100133.67;1782919;80;21022;-67
2023/10/22 07:26:50;;;;;;;42.20;18.37;;;;;;;11.49;100.00;100130.52;1782789;80;21019;-68
2023/10/22 07:29:19;;;;;;;37.60;17.52;;;;;;;11.51;100.00;100132.52;1782731;80;21266;-67
2023/10/22 07:31:48;;;;;;;42.95;18.32;;;;;;;11.56;100.00;100132.73;1782842;80;21066;-65
2023/10/22 07:34:18;;;;;;;43.60;20.25;;;;;;;11.59;100.00;100128.20;1783077;80;21022;-66
2023/10/22 07:36:47;;;;;;;45.25;19.57;;;;;;;11.60;100.00;100136.74;1782724;80;21011;-67
2023/10/22 07:39:17;;;;;;;49.48;20.85;;;;;;;11.62;100.00;100132.41;1782934;80;21026;-66
2023/10/22 07:41:46;;;;;;;43.13;19.05;;;;;;;11.63;100.00;100130.83;1782931;80;21055;-67
2023/10/22 07:44:14;;;;;;;43.92;20.55;;;;;;;11.63;100.00;100124.50;1761559;80;21062;-67
2023/10/22 07:46:43;;;;;;;48.10;21.62;;;;;;;11.62;100.00;100121.44;1782528;80;21062;-65
2023/10/22 07:49:12;;;;;;;51.68;21.42;;;;;;;11.63;100.00;100106.13;1782666;80;21003;-66
2023/10/22 07:51:40;;;;;;;50.58;22.15;;;;;;;11.63;100.00;100099.27;1782800;80;21084;-66
2023/10/22 07:54:09;;;;;;;54.98;22.80;;;;;;;11.64;100.00;100102.33;1759998;80;21563;-68
2023/10/22 07:56:39;;;;;;;54.80;22.93;;;;;;;11.66;100.00;100097.48;1782825;80;21022;-65
2023/10/22 07:59:07;;;;;;;52.90;23.67;;;;;;;11.69;100.00;100101.17;1780209;80;21035;-69
2023/10/22 08:01:36;;;;;;;55.63;23.42;;;;;;;11.72;100.00;100104.05;1738085;81;21099;-67
2023/10/22 08:04:06;;;;;;;65.32;24.52;;;;;;;11.73;100.00;100105.21;1718371;82;21071;-69
2023/10/22 08:06:36;;;;;;;55.63;23.92;;;;;;;11.75;100.00;100100.35;1751050;80;21027;-67
2023/10/22 08:09:06;;;;;;;57.03;24.50;;;;;;;11.78;100.00;100095.52;1737893;82;21118;-67
2023/10/22 08:11:35;;;;;;;53.10;24.50;;;;;;;11.80;100.00;100095.63;1716928;83;21066;-67
2023/10/22 08:14:04;;;;;;;57.78;25.02;;;;;;;11.82;100.00;100094.89;1716958;83;21027;-70
2023/10/22 08:16:34;;;;;;;57.85;25.27;;;;;;;11.85;100.00;100085.38;1716883;83;21055;-68
2023/10/22 08:19:03;;;;;;;59.67;24.70;;;;;;;11.87;100.00;100079.15;1746524;82;21034;-68
2023/10/22 08:21:31;;;;;;;61.70;24.65;;;;;;;11.87;100.00;100077.77;1746794;82;21012;-67
2023/10/22 08:24:00;;;;;;;56.68;24.35;;;;;;;11.90;100.00;100080.09;1746711;82;21062;-69
2023/10/22 08:26:29;;;;;;;56.23;24.18;;;;;;;11.93;100.00;100075.55;1725813;82;21019;-69
2023/10/22 08:28:58;;;;;;;60.25;26.05;;;;;;;11.95;100.00;100074.80;1711004;84;21092;-68
2023/10/22 08:31:27;;;;;;;60.85;26.07;;;;;;;11.97;100.00;100079.02;1712415;83;21104;-68
2023/10/22 08:33:55;;;;;;;58.73;25.17;;;;;;;11.99;100.00;100068.66;1710055;83;21543;-68
2023/10/22 08:36:25;;;;;;;53.08;25.68;;;;;;;12.02;100.00;100059.99;1749261;82;21042;-66
2023/10/22 08:38:53;;;;;;;59.13;24.82;;;;;;;12.05;100.00;100054.07;1748744;82;21090;-74
2023/10/22 08:41:22;;;;;;;55.40;25.23;;;;;;;12.09;100.00;100057.23;1729120;82;21028;-72
2023/10/22 08:43:51;;;;;;;62.67;26.75;;;;;;;12.12;100.00;100047.18;1749973;82;21451;-73
2023/10/22 08:46:19;;;;;;;64.00;27.05;;;;;;;12.13;100.00;100042.53;1749559;82;21011;-73
2023/10/22 08:48:50;;;;;;;64.87;26.62;;;;;;;12.15;100.00;100035.77;1749771;82;21039;-74
2023/10/22 08:51:18;;;;;;;60.98;26.00;;;;;;;12.17;100.00;100040.51;1749925;82;21078;-74
2023/10/22 08:53:47;;;;;;;61.88;26.23;;;;;;;12.20;100.00;100037.86;1749631;82;20999;-73
2023/10/22 08:56:16;;;;;;;61.30;26.65;;;;;;;12.20;100.00;100035.11;1750130;82;20995;-72
2023/10/22 08:58:45;;;;;;;65.47;27.25;;;;;;;12.21;100.00;100032.68;1750263;82;21001;-74
2023/10/22 09:01:14;;;;;;;57.83;26.15;;;;;;;12.23;100.00;100027.28;1749845;82;21066;-72
2023/10/22 09:03:42;;;;;;;62.38;26.95;;;;;;;12.26;100.00;100025.47;1729151;82;21059;-73
2023/10/22 09:06:11;;;;;;;59.65;26.20;;;;;;;12.28;100.00;100009.61;1729399;82;21054;-73
2023/10/22 09:08:43;;;;;;;63.40;26.73;;;;;;;12.30;100.00;100010.23;1740052;82;21110;-75
2023/10/22 09:11:16;;;;;;;65.72;28.35;;;;;;;12.31;100.00;100002.31;1697820;84;21057;-74
2023/10/22 09:13:44;;;;;;;62.08;27.87;;;;;;;12.33;100.00;99997.44;1710286;84;21047;-73
2023/10/22 09:16:31;;;;;;;66.77;30.00;;;;;;;12.36;100.00;99985.20;1767309;81;21085;-73
2023/10/22 09:19:01;;;;;;;65.60;27.87;;;;;;;12.38;100.00;99983.92;1748488;81;21096;-72
2023/10/22 09:21:45;;;;;;;62.17;27.82;;;;;;;12.40;100.00;99982.33;1767309;81;21076;-74
2023/10/22 09:24:14;;;;;;;62.15;27.30;;;;;;;12.46;100.00;99973.73;1748388;81;21080;-75
2023/10/22 09:26:49;;;;;;;64.12;28.20;;;;;;;12.52;100.00;99968.20;1767257;81;21025;-75
2023/10/22 09:29:18;;;;;;;69.75;29.55;;;;;;;12.57;100.00;99968.91;1748684;81;21067;-74
2023/10/22 09:31:51;;;;;;;60.75;27.05;;;;;;;12.60;100.00;99964.34;1748374;81;21064;-74
2023/10/22 09:34:32;;;;;;;62.62;28.30;;;;;;;12.63;100.00;99961.98;1746944;81;21037;-73
2023/10/22 09:37:01;;;;;;;68.60;27.10;;;;;;;12.66;100.00;99952.45;1743873;82;21085;-74
2023/10/22 09:39:37;;;;;;;59.38;27.20;;;;;;;12.70;100.00;99958.66;1743793;81;21002;-74
2023/10/22 09:42:06;;;;;;;61.95;29.12;;;;;;;12.72;100.00;99955.69;1743694;82;21062;-76
2023/10/22 09:44:38;;;;;;;59.55;27.22;;;;;;;12.77;100.00;99959.98;1743947;82;21022;-75
2023/10/22 09:47:08;;;;;;;62.88;31.15;;;;;;;12.83;100.00;99960.47;1743896;82;21026;-75
2023/10/22 09:49:38;;;;;;;61.60;26.60;;;;;;;12.87;100.00;99949.34;1743646;82;21084;-76
2023/10/22 09:52:07;;;;;;;56.05;26.77;;;;;;;12.92;100.00;99950.88;1743926;81;21049;-75
2023/10/22 09:54:38;;;;;;;59.75;27.17;;;;;;;12.99;100.00;99944.79;1715150;82;21058;-75
2023/10/22 09:57:14;;;;;;;61.18;28.80;;;;;;;13.06;100.00;99945.30;1740828;82;21043;-75
2023/10/22 09:59:44;;;;;;;61.83;28.73;;;;;;;13.12;100.00;99942.48;1742538;82;21056;-74
2023/10/22 10:02:17;;;;;;;62.30;28.20;;;;;;;13.14;100.00;99935.39;1738546;82;21049;-74
2023/10/22 10:04:49;;;;;;;59.85;28.55;;;;;;;13.14;100.00;99930.73;1741564;82;21124;-75
2023/10/22 10:07:18;;;;;;;64.00;30.17;;;;;;;13.17;100.00;99934.97;1743970;82;21114;-75
2023/10/22 10:09:47;;;;;;;55.73;27.52;;;;;;;13.19;100.00;99931.45;1727608;82;21031;-75
2023/10/22 10:12:16;;;;;;;55.83;27.20;;;;;;;13.20;100.00;99929.02;1728419;81;21101;-75
2023/10/22 10:14:49;;;;;;;56.88;27.32;;;;;;;13.22;100.00;99929.09;1761975;81;21053;-76
2023/10/22 10:17:20;;;;;;;56.45;27.75;;;;;;;13.24;100.00;99928.87;1748347;81;21048;-76
2023/10/22 10:19:48;;;;;;;55.25;27.85;;;;;;;13.27;100.00;99914.66;1738547;82;21080;-77
2023/10/22 10:22:43;;;;;;;56.37;27.20;;;;;;;13.27;100.00;99906.41;1738669;82;21013;-74
2023/10/22 10:25:28;;;;;;;58.95;27.27;;;;;;;13.29;100.00;99911.14;1738176;82;21037;-75
2023/10/22 10:28:08;;;;;;;61.00;28.32;;;;;;;13.33;100.00;99901.36;1718228;82;21057;-76
2023/10/22 10:30:37;;;;;;;52.10;26.45;;;;;;;13.37;100.00;99901.22;1738856;82;21076;-74
2023/10/22 10:33:07;;;;;;;56.65;26.50;;;;;;;13.39;100.00;99896.33;1740946;82;21080;-73
2023/10/22 10:35:47;;;;;;;51.18;26.20;;;;;;;13.44;100.00;99891.52;1741489;81;21056;-73
2023/10/22 10:38:18;;;;;;;55.12;26.45;;;;;;;13.48;100.00;99888.61;1740324;82;21594;-76
2023/10/22 10:40:55;;;;;;;49.83;25.50;;;;;;;13.50;100.00;99884.55;1740508;82;21148;-75
2023/10/22 10:43:44;;;;;;;;;;;;;;;13.53;100.00;99880.50;1743041;82;21120;-76
2023/10/22 10:46:27;;;;;;;56.28;26.97;;;;;;;13.55;100.00;99875.61;1740437;82;20349;-74
2023/10/22 10:48:55;;;;;;;55.52;26.55;;;;;;;13.51;100.00;99868.88;1740431;82;21052;-77
2023/10/22 10:51:24;;;;;;;54.42;25.77;;;;;;;13.51;100.00;99862.00;1740374;82;21084;-75
2023/10/22 10:54:12;;;;;;;51.73;26.70;;;;;;;13.53;100.00;99866.20;1712124;82;21064;-74
2023/10/22 10:56:50;;;;;;;55.43;26.35;;;;;;;13.55;100.00;99870.94;1740393;82;21076;-74
2023/10/22 10:59:36;;;;;;;57.67;28.15;;;;;;;13.56;100.00;99871.78;1740679;82;21052;-78
2023/10/22 11:02:10;;;;;;;60.25;28.55;;;;;;;13.54;100.00;99866.51;1740636;82;21069;-77
2023/10/22 11:04:44;;;;;;;58.87;27.37;;;;;;;13.55;100.00;99865.44;1735665;82;21064;-77
2023/10/22 11:07:14;;;;;;;52.33;24.30;;;;;;;13.57;100.00;99864.67;1732613;83;21065;-73
2023/10/22 11:09:44;;;;;;;53.42;25.85;;;;;;;13.59;100.00;99868.57;1731889;82;21479;-76
2023/10/22 11:12:13;;;;;;;51.70;25.27;;;;;;;13.62;100.00;99859.31;1731562;83;21059;-76
2023/10/22 11:14:41;;;;;;;57.10;26.95;;;;;;;13.67;100.00;99857.28;1713066;83;21094;-76
2023/10/22 11:17:11;;;;;;;55.30;26.77;;;;;;;13.71;100.00;99859.03;1731321;83;21456;-76